sensor_id;sensor_type;location;lat;lon;timestamp;pressure;altitude;pressure_sealevel;temperature;humidity
45441;BME280;31189;38.790;-77.084;2024-03-08T00:02:06;101497.99;;;19.43;35.13
45441;BME280;31189;38.790;-77.084;2024-03-08T00:04:31;101495.96;;;18.55;35.55
45441;BME280;31189;38.790;-77.084;2024-03-08T00:06:57;101495.26;;;18.43;36.18
45441;BME280;31189;38.790;-77.084;2024-03-08T00:09:23;101503.35;;;18.70;35.52
45441;BME280;31189;38.790;-77.084;2024-03-08T00:11:48;101509.60;;;18.92;35.18
45441;BME280;31189;38.790;-77.084;2024-03-08T00:14:14;101519.50;;;19.50;35.13
45441;BME280;31189;38.790;-77.084;2024-03-08T00:16:40;101526.65;;;19.27;35.07
45441;BME280;31189;38.790;-77.084;2024-03-08T00:19:05;101534.86;;;19.60;34.71
45441;BME280;31189;38.790;-77.084;2024-03-08T00:21:31;101537.87;;;19.52;34.80
45441;BME280;31189;38.790;-77.084;2024-03-08T00:23:56;101538.04;;;19.60;34.59
45441;BME280;31189;38.790;-77.084;2024-03-08T00:26:22;101534.79;;;19.65;34.28
45441;BME280;31189;38.790;-77.084;2024-03-08T00:28:48;101535.61;;;19.20;34.80
45441;BME280;31189;38.790;-77.084;2024-03-08T00:31:13;101542.90;;;19.00;35.11
45441;BME280;31189;38.790;-77.084;2024-03-08T00:33:39;101550.14;;;19.03;35.36
45441;BME280;31189;38.790;-77.084;2024-03-08T00:36:05;101555.34;;;19.06;35.58
45441;BME280;31189;38.790;-77.084;2024-03-08T00:38:30;101557.47;;;19.46;35.15
45441;BME280;31189;38.790;-77.084;2024-03-08T00:40:56;101551.54;;;19.25;35.00
45441;BME280;31189;38.790;-77.084;2024-03-08T00:43:21;101553.30;;;19.21;35.39
45441;BME280;31189;38.790;-77.084;2024-03-08T00:45:47;101556.80;;;19.16;35.87
45441;BME280;31189;38.790;-77.084;2024-03-08T00:48:13;101563.97;;;19.21;35.93
45441;BME280;31189;38.790;-77.084;2024-03-08T00:50:38;101566.31;;;19.08;36.06
45441;BME280;31189;38.790;-77.084;2024-03-08T00:53:04;101571.50;;;18.50;37.09
45441;BME280;31189;38.790;-77.084;2024-03-08T00:55:29;101575.75;;;17.90;37.85
45441;BME280;31189;38.790;-77.084;2024-03-08T00:57:55;101578.89;;;18.55;36.96
45441;BME280;31189;38.790;-77.084;2024-03-08T01:00:21;101584.23;;;18.16;37.68
45441;BME280;31189;38.790;-77.084;2024-03-08T01:02:46;101589.90;;;18.23;37.54
45441;BME280;31189;38.790;-77.084;2024-03-08T01:05:12;101596.02;;;17.94;38.05
45441;BME280;31189;38.790;-77.084;2024-03-08T01:07:38;101601.50;;;17.75;38.92
45441;BME280;31189;38.790;-77.084;2024-03-08T01:10:04;101604.91;;;17.69;38.86
45441;BME280;31189;38.790;-77.084;2024-03-08T01:12:29;101609.93;;;17.00;40.00
45441;BME280;31189;38.790;-77.084;2024-03-08T01:14:55;101612.09;;;16.86;40.75
45441;BME280;31189;38.790;-77.084;2024-03-08T01:17:20;101610.96;;;17.16;40.27
45441;BME280;31189;38.790;-77.084;2024-03-08T01:19:46;101613.50;;;16.90;40.17
45441;BME280;31189;38.790;-77.084;2024-03-08T01:22:11;101614.70;;;16.92;41.27
45441;BME280;31189;38.790;-77.084;2024-03-08T01:24:37;101624.92;;;16.42;41.91
45441;BME280;31189;38.790;-77.084;2024-03-08T01:27:03;101626.22;;;17.20;40.72
45441;BME280;31189;38.790;-77.084;2024-03-08T01:29:28;101628.17;;;17.26;40.52
45441;BME280;31189;38.790;-77.084;2024-03-08T01:31:54;101631.86;;;16.34;42.26
45441;BME280;31189;38.790;-77.084;2024-03-08T01:34:19;101637.84;;;16.12;42.94
45441;BME280;31189;38.790;-77.084;2024-03-08T01:36:45;101642.37;;;15.98;42.94
45441;BME280;31189;38.790;-77.084;2024-03-08T01:39:12;101648.93;;;16.72;42.27
45441;BME280;31189;38.790;-77.084;2024-03-08T01:41:36;101653.86;;;16.50;41.94
45441;BME280;31189;38.790;-77.084;2024-03-08T01:44:03;101656.90;;;16.60;41.75
45441;BME280;31189;38.790;-77.084;2024-03-08T01:46:27;101659.46;;;16.74;41.96
45441;BME280;31189;38.790;-77.084;2024-03-08T01:48:53;101656.41;;;15.74;43.28
45441;BME280;31189;38.790;-77.084;2024-03-08T01:51:24;101662.81;;;16.58;43.08
45441;BME280;31189;38.790;-77.084;2024-03-08T01:53:47;101665.19;;;16.24;42.77
45441;BME280;31189;38.790;-77.084;2024-03-08T01:56:10;101665.03;;;16.43;42.21
45441;BME280;31189;38.790;-77.084;2024-03-08T01:58:35;101669.48;;;16.21;43.04
45441;BME280;31189;38.790;-77.084;2024-03-08T02:01:02;101670.33;;;16.30;43.37
45441;BME280;31189;38.790;-77.084;2024-03-08T02:03:27;101672.61;;;16.21;43.09
45441;BME280;31189;38.790;-77.084;2024-03-08T02:05:52;101675.47;;;15.95;43.24
45441;BME280;31189;38.790;-77.084;2024-03-08T02:08:19;101675.87;;;15.85;44.25
45441;BME280;31189;38.790;-77.084;2024-03-08T02:10:44;101680.45;;;16.19;43.41
45441;BME280;31189;38.790;-77.084;2024-03-08T02:13:10;101690.01;;;16.22;43.14
45441;BME280;31189;38.790;-77.084;2024-03-08T02:15:52;101692.25;;;16.12;43.61
45441;BME280;31189;38.790;-77.084;2024-03-08T02:18:01;101701.00;;;15.82;44.18
45441;BME280;31189;38.790;-77.084;2024-03-08T02:20:29;101706.30;;;15.24;44.85
45441;BME280;31189;38.790;-77.084;2024-03-08T02:22:52;101713.67;;;15.76;44.39
45441;BME280;31189;38.790;-77.084;2024-03-08T02:25:18;101718.33;;;15.35;44.41
45441;BME280;31189;38.790;-77.084;2024-03-08T02:27:43;101720.14;;;15.82;43.98
45441;BME280;31189;38.790;-77.084;2024-03-08T02:30:10;101722.33;;;15.61;43.92
45441;BME280;31189;38.790;-77.084;2024-03-08T02:32:34;101728.14;;;15.81;44.30
45441;BME280;31189;38.790;-77.084;2024-03-08T02:35:00;101736.97;;;15.53;44.45
45441;BME280;31189;38.790;-77.084;2024-03-08T02:37:26;101739.54;;;15.47;44.56
45441;BME280;31189;38.790;-77.084;2024-03-08T02:39:51;101743.09;;;14.92;45.65
45441;BME280;31189;38.790;-77.084;2024-03-08T02:42:17;101744.59;;;15.48;44.59
45441;BME280;31189;38.790;-77.084;2024-03-08T02:44:43;101750.32;;;15.52;45.22
45441;BME280;31189;38.790;-77.084;2024-03-08T02:47:08;101749.00;;;15.14;45.69
45441;BME280;31189;38.790;-77.084;2024-03-08T02:49:34;101749.08;;;15.29;46.13
45441;BME280;31189;38.790;-77.084;2024-03-08T02:51:59;101750.55;;;14.99;46.06
45441;BME280;31189;38.790;-77.084;2024-03-08T02:54:25;101751.33;;;15.01;46.50
45441;BME280;31189;38.790;-77.084;2024-03-08T02:56:50;101752.34;;;15.09;46.43
45441;BME280;31189;38.790;-77.084;2024-03-08T02:59:16;101754.63;;;15.05;46.36
45441;BME280;31189;38.790;-77.084;2024-03-08T03:01:42;101755.56;;;15.33;45.89
45441;BME280;31189;38.790;-77.084;2024-03-08T03:04:07;101756.25;;;14.55;47.35
45441;BME280;31189;38.790;-77.084;2024-03-08T03:06:33;101759.58;;;14.52;47.47
45441;BME280;31189;38.790;-77.084;2024-03-08T03:08:59;101763.70;;;14.95;46.47
45441;BME280;31189;38.790;-77.084;2024-03-08T03:11:24;101769.66;;;14.23;47.91
45441;BME280;31189;38.790;-77.084;2024-03-08T03:13:50;101768.35;;;14.40;47.63
45441;BME280;31189;38.790;-77.084;2024-03-08T03:16:18;101768.98;;;13.94;48.67
45441;BME280;31189;38.790;-77.084;2024-03-08T03:18:41;101773.99;;;14.00;48.36
45441;BME280;31189;38.790;-77.084;2024-03-08T03:21:07;101775.98;;;13.73;48.95
45441;BME280;31189;38.790;-77.084;2024-03-08T03:23:32;101777.16;;;13.99;49.00
45441;BME280;31189;38.790;-77.084;2024-03-08T03:25:58;101776.44;;;14.20;48.22
45441;BME280;31189;38.790;-77.084;2024-03-08T03:28:24;101781.04;;;14.22;48.55
45441;BME280;31189;38.790;-77.084;2024-03-08T03:30:49;101786.26;;;14.38;47.48
45441;BME280;31189;38.790;-77.084;2024-03-08T03:33:15;101790.28;;;14.70;46.87
45441;BME280;31189;38.790;-77.084;2024-03-08T03:35:41;101795.25;;;14.17;47.72
45441;BME280;31189;38.790;-77.084;2024-03-08T03:38:06;101795.00;;;14.62;47.20
45441;BME280;31189;38.790;-77.084;2024-03-08T03:40:32;101796.69;;;14.59;46.82
45441;BME280;31189;38.790;-77.084;2024-03-08T03:42:57;101795.19;;;14.53;47.22
45441;BME280;31189;38.790;-77.084;2024-03-08T03:45:23;101794.03;;;14.03;48.66
45441;BME280;31189;38.790;-77.084;2024-03-08T03:47:49;101797.62;;;14.46;47.52
45441;BME280;31189;38.790;-77.084;2024-03-08T03:50:14;101800.16;;;14.52;47.29
45441;BME280;31189;38.790;-77.084;2024-03-08T03:52:40;101801.14;;;14.03;47.92
45441;BME280;31189;38.790;-77.084;2024-03-08T03:55:05;101802.95;;;13.30;49.49
45441;BME280;31189;38.790;-77.084;2024-03-08T03:57:31;101803.18;;;14.00;48.63
45441;BME280;31189;38.790;-77.084;2024-03-08T03:59:57;101809.90;;;13.84;48.54
45441;BME280;31189;38.790;-77.084;2024-03-08T04:02:22;101814.04;;;13.68;49.06
45441;BME280;31189;38.790;-77.084;2024-03-08T04:04:48;101817.26;;;13.75;50.09
45441;BME280;31189;38.790;-77.084;2024-03-08T04:07:13;101816.78;;;13.70;49.71
45441;BME280;31189;38.790;-77.084;2024-03-08T04:09:39;101819.27;;;13.51;50.46
45441;BME280;31189;38.790;-77.084;2024-03-08T04:12:06;101817.38;;;12.92;51.53
45441;BME280;31189;38.790;-77.084;2024-03-08T04:14:30;101818.94;;;13.43;50.79
45441;BME280;31189;38.790;-77.084;2024-03-08T04:16:56;101817.36;;;13.22;51.45
45441;BME280;31189;38.790;-77.084;2024-03-08T04:19:22;101821.71;;;13.47;50.30
45441;BME280;31189;38.790;-77.084;2024-03-08T04:21:47;101823.59;;;13.90;49.66
45441;BME280;31189;38.790;-77.084;2024-03-08T04:24:13;101825.80;;;13.62;50.37
45441;BME280;31189;38.790;-77.084;2024-03-08T04:26:39;101829.87;;;13.73;50.27
45441;BME280;31189;38.790;-77.084;2024-03-08T04:29:04;101829.63;;;13.72;49.02
45441;BME280;31189;38.790;-77.084;2024-03-08T04:31:30;101833.97;;;13.49;48.23
45441;BME280;31189;38.790;-77.084;2024-03-08T04:33:55;101830.23;;;13.71;48.32
45441;BME280;31189;38.790;-77.084;2024-03-08T04:36:21;101829.02;;;13.98;47.29
45441;BME280;31189;38.790;-77.084;2024-03-08T04:38:46;101833.83;;;13.44;48.08
45441;BME280;31189;38.790;-77.084;2024-03-08T04:41:12;101838.05;;;13.00;48.81
45441;BME280;31189;38.790;-77.084;2024-03-08T04:43:37;101843.04;;;12.96;50.27
45441;BME280;31189;38.790;-77.084;2024-03-08T04:46:03;101845.64;;;12.94;51.04
45441;BME280;31189;38.790;-77.084;2024-03-08T04:48:28;101848.32;;;13.38;49.38
45441;BME280;31189;38.790;-77.084;2024-03-08T04:50:54;101854.27;;;12.88;50.57
45441;BME280;31189;38.790;-77.084;2024-03-08T04:53:20;101857.18;;;13.17;49.69
45441;BME280;31189;38.790;-77.084;2024-03-08T04:55:45;101861.08;;;12.91;50.75
45441;BME280;31189;38.790;-77.084;2024-03-08T04:58:11;101871.68;;;13.10;49.31
45441;BME280;31189;38.790;-77.084;2024-03-08T05:00:37;101868.95;;;13.79;48.75
45441;BME280;31189;38.790;-77.084;2024-03-08T05:03:03;101869.46;;;13.53;49.00
45441;BME280;31189;38.790;-77.084;2024-03-08T05:05:28;101870.34;;;13.14;49.74
45441;BME280;31189;38.790;-77.084;2024-03-08T05:07:53;101871.05;;;12.78;51.06
45441;BME280;31189;38.790;-77.084;2024-03-08T05:10:19;101869.55;;;12.51;50.86
45441;BME280;31189;38.790;-77.084;2024-03-08T05:12:45;101866.94;;;12.53;50.95
45441;BME280;31189;38.790;-77.084;2024-03-08T05:15:10;101862.48;;;12.89;50.61
45441;BME280;31189;38.790;-77.084;2024-03-08T05:17:36;101861.76;;;12.94;50.18
45441;BME280;31189;38.790;-77.084;2024-03-08T05:20:02;101864.02;;;12.50;51.28
45441;BME280;31189;38.790;-77.084;2024-03-08T05:22:27;101865.02;;;13.04;51.12
45441;BME280;31189;38.790;-77.084;2024-03-08T05:24:53;101873.18;;;12.66;50.96
45441;BME280;31189;38.790;-77.084;2024-03-08T05:27:19;101875.06;;;13.16;49.78
45441;BME280;31189;38.790;-77.084;2024-03-08T05:29:44;101878.39;;;12.97;50.01
45441;BME280;31189;38.790;-77.084;2024-03-08T05:32:10;101883.29;;;13.20;49.56
45441;BME280;31189;38.790;-77.084;2024-03-08T05:34:35;101882.12;;;13.33;48.81
45441;BME280;31189;38.790;-77.084;2024-03-08T05:37:01;101880.11;;;13.28;48.67
45441;BME280;31189;38.790;-77.084;2024-03-08T05:39:27;101881.01;;;13.15;49.57
45441;BME280;31189;38.790;-77.084;2024-03-08T05:41:53;101876.51;;;13.33;49.28
45441;BME280;31189;38.790;-77.084;2024-03-08T05:44:18;101876.77;;;12.88;50.26
45441;BME280;31189;38.790;-77.084;2024-03-08T05:46:47;101877.92;;;12.54;51.72
45441;BME280;31189;38.790;-77.084;2024-03-08T05:49:09;101879.80;;;12.64;51.65
45441;BME280;31189;38.790;-77.084;2024-03-08T05:51:36;101882.48;;;12.54;51.91
45441;BME280;31189;38.790;-77.084;2024-03-08T05:54:01;101887.38;;;12.24;52.21
45441;BME280;31189;38.790;-77.084;2024-03-08T05:56:26;101888.35;;;12.36;53.22
45441;BME280;31189;38.790;-77.084;2024-03-08T05:58:52;101890.40;;;12.64;51.74
45441;BME280;31189;38.790;-77.084;2024-03-08T06:01:19;101890.66;;;12.63;51.33
45441;BME280;31189;38.790;-77.084;2024-03-08T06:03:43;101891.99;;;12.42;51.60
45441;BME280;31189;38.790;-77.084;2024-03-08T06:06:09;101896.23;;;12.74;50.91
45441;BME280;31189;38.790;-77.084;2024-03-08T06:08:35;101896.68;;;13.08;49.72
45441;BME280;31189;38.790;-77.084;2024-03-08T06:11:00;101902.28;;;13.11;49.42
45441;BME280;31189;38.790;-77.084;2024-03-08T06:13:26;101908.20;;;13.82;48.55
45441;BME280;31189;38.790;-77.084;2024-03-08T06:15:51;101905.43;;;12.74;49.40
45441;BME280;31189;38.790;-77.084;2024-03-08T06:18:17;101907.46;;;13.48;48.16
45441;BME280;31189;38.790;-77.084;2024-03-08T06:20:43;101910.99;;;13.32;48.34
45441;BME280;31189;38.790;-77.084;2024-03-08T06:23:08;101910.43;;;13.13;48.78
45441;BME280;31189;38.790;-77.084;2024-03-08T06:25:34;101914.08;;;13.01;47.76
45441;BME280;31189;38.790;-77.084;2024-03-08T06:28:00;101915.35;;;13.39;46.95
45441;BME280;31189;38.790;-77.084;2024-03-08T06:30:25;101920.90;;;13.71;46.72
45441;BME280;31189;38.790;-77.084;2024-03-08T06:32:51;101925.57;;;13.66;46.56
45441;BME280;31189;38.790;-77.084;2024-03-08T06:35:17;101932.52;;;13.64;46.85
45441;BME280;31189;38.790;-77.084;2024-03-08T06:37:42;101934.72;;;13.27;47.11
45441;BME280;31189;38.790;-77.084;2024-03-08T06:40:08;101936.00;;;13.01;47.97
45441;BME280;31189;38.790;-77.084;2024-03-08T06:42:33;101939.30;;;13.58;46.80
45441;BME280;31189;38.790;-77.084;2024-03-08T06:44:59;101940.11;;;13.63;46.55
45441;BME280;31189;38.790;-77.084;2024-03-08T06:47:25;101943.38;;;14.03;46.09
45441;BME280;31189;38.790;-77.084;2024-03-08T06:49:50;101942.75;;;13.68;46.12
45441;BME280;31189;38.790;-77.084;2024-03-08T06:52:16;101947.47;;;13.56;46.33
45441;BME280;31189;38.790;-77.084;2024-03-08T06:54:42;101947.19;;;13.86;46.04
45441;BME280;31189;38.790;-77.084;2024-03-08T06:57:07;101943.49;;;14.24;45.62
45441;BME280;31189;38.790;-77.084;2024-03-08T06:59:33;101944.84;;;14.14;45.84
45441;BME280;31189;38.790;-77.084;2024-03-08T07:01:58;101939.99;;;13.96;45.66
45441;BME280;31189;38.790;-77.084;2024-03-08T07:04:24;101939.54;;;14.08;45.36
45441;BME280;31189;38.790;-77.084;2024-03-08T07:06:50;101942.87;;;13.40;46.63
45441;BME280;31189;38.790;-77.084;2024-03-08T07:09:15;101949.18;;;13.62;45.84
45441;BME280;31189;38.790;-77.084;2024-03-08T07:11:41;101950.52;;;13.53;46.06
45441;BME280;31189;38.790;-77.084;2024-03-08T07:14:07;101949.26;;;13.61;45.35
45441;BME280;31189;38.790;-77.084;2024-03-08T07:16:32;101951.83;;;14.13;44.70
45441;BME280;31189;38.790;-77.084;2024-03-08T07:18:58;101954.45;;;14.27;44.62
45441;BME280;31189;38.790;-77.084;2024-03-08T07:21:24;101952.89;;;14.07;44.52
45441;BME280;31189;38.790;-77.084;2024-03-08T07:23:49;101951.37;;;14.32;44.03
45441;BME280;31189;38.790;-77.084;2024-03-08T07:26:16;101950.19;;;14.04;44.16
45441;BME280;31189;38.790;-77.084;2024-03-08T07:28:40;101949.51;;;14.08;44.49
45441;BME280;31189;38.790;-77.084;2024-03-08T07:31:06;101947.42;;;13.61;44.74
45441;BME280;31189;38.790;-77.084;2024-03-08T07:33:32;101946.61;;;14.18;44.57
45441;BME280;31189;38.790;-77.084;2024-03-08T07:35:58;101950.07;;;13.74;45.00
45441;BME280;31189;38.790;-77.084;2024-03-08T07:38:23;101950.94;;;13.74;44.95
45441;BME280;31189;38.790;-77.084;2024-03-08T07:40:49;101948.68;;;13.88;44.68
45441;BME280;31189;38.790;-77.084;2024-03-08T07:43:14;101943.60;;;13.58;44.88
45441;BME280;31189;38.790;-77.084;2024-03-08T07:45:41;101941.10;;;13.84;45.04
45441;BME280;31189;38.790;-77.084;2024-03-08T07:48:06;101943.82;;;13.82;45.47
45441;BME280;31189;38.790;-77.084;2024-03-08T07:50:31;101947.32;;;13.82;45.45
45441;BME280;31189;38.790;-77.084;2024-03-08T07:52:57;101951.75;;;13.95;45.08
45441;BME280;31189;38.790;-77.084;2024-03-08T07:55:22;101954.20;;;13.55;46.08
45441;BME280;31189;38.790;-77.084;2024-03-08T07:57:48;101960.03;;;13.29;45.96
45441;BME280;31189;38.790;-77.084;2024-03-08T08:00:14;101966.89;;;12.92;46.78
45441;BME280;31189;38.790;-77.084;2024-03-08T08:02:39;101976.23;;;13.15;46.87
45441;BME280;31189;38.790;-77.084;2024-03-08T08:05:05;101976.33;;;13.42;46.32
45441;BME280;31189;38.790;-77.084;2024-03-08T08:07:30;101975.44;;;13.59;45.56
45441;BME280;31189;38.790;-77.084;2024-03-08T08:09:56;101970.25;;;13.72;45.21
45441;BME280;31189;38.790;-77.084;2024-03-08T08:12:22;101971.32;;;13.68;44.86
45441;BME280;31189;38.790;-77.084;2024-03-08T08:14:47;101973.47;;;13.59;45.13
45441;BME280;31189;38.790;-77.084;2024-03-08T08:17:13;101971.36;;;13.19;45.34
45441;BME280;31189;38.790;-77.084;2024-03-08T08:19:41;101973.75;;;13.23;45.40
45441;BME280;31189;38.790;-77.084;2024-03-08T08:22:05;101975.14;;;13.74;45.10
45441;BME280;31189;38.790;-77.084;2024-03-08T08:24:30;101967.80;;;13.42;44.88
45441;BME280;31189;38.790;-77.084;2024-03-08T08:26:56;101962.63;;;13.50;44.93
45441;BME280;31189;38.790;-77.084;2024-03-08T08:29:21;101956.30;;;13.52;44.85
45441;BME280;31189;38.790;-77.084;2024-03-08T08:31:47;101952.01;;;13.61;44.89
45441;BME280;31189;38.790;-77.084;2024-03-08T08:34:13;101949.82;;;13.23;45.76
45441;BME280;31189;38.790;-77.084;2024-03-08T08:36:38;101947.09;;;12.79;46.47
45441;BME280;31189;38.790;-77.084;2024-03-08T08:39:04;101949.75;;;13.07;46.31
45441;BME280;31189;38.790;-77.084;2024-03-08T08:41:30;101954.96;;;12.67;47.55
45441;BME280;31189;38.790;-77.084;2024-03-08T08:43:55;101954.96;;;12.53;47.58
45441;BME280;31189;38.790;-77.084;2024-03-08T08:46:21;101958.76;;;12.60;47.40
45441;BME280;31189;38.790;-77.084;2024-03-08T08:48:46;101961.17;;;12.32;48.01
45441;BME280;31189;38.790;-77.084;2024-03-08T08:51:12;101961.45;;;12.30;48.66
45441;BME280;31189;38.790;-77.084;2024-03-08T08:53:38;101962.37;;;12.16;48.58
45441;BME280;31189;38.790;-77.084;2024-03-08T08:56:04;101966.23;;;12.35;48.47
45441;BME280;31189;38.790;-77.084;2024-03-08T08:58:29;101975.04;;;12.66;47.32
45441;BME280;31189;38.790;-77.084;2024-03-08T09:00:55;101977.98;;;12.32;47.74
45441;BME280;31189;38.790;-77.084;2024-03-08T09:03:20;101981.14;;;13.00;46.56
45441;BME280;31189;38.790;-77.084;2024-03-08T09:05:46;101984.60;;;12.77;46.78
45441;BME280;31189;38.790;-77.084;2024-03-08T09:08:11;101992.86;;;12.98;46.50
45441;BME280;31189;38.790;-77.084;2024-03-08T09:10:37;101997.76;;;12.53;46.55
45441;BME280;31189;38.790;-77.084;2024-03-08T09:13:03;102003.41;;;12.99;46.07
45441;BME280;31189;38.790;-77.084;2024-03-08T09:15:28;102009.27;;;12.97;46.24
45441;BME280;31189;38.790;-77.084;2024-03-08T09:17:54;102020.43;;;13.20;45.72
45441;BME280;31189;38.790;-77.084;2024-03-08T09:20:20;102025.11;;;13.24;44.94
45441;BME280;31189;38.790;-77.084;2024-03-08T09:22:45;102032.27;;;13.35;44.85
45441;BME280;31189;38.790;-77.084;2024-03-08T09:25:11;102038.35;;;13.58;44.37
45441;BME280;31189;38.790;-77.084;2024-03-08T09:27:37;102043.65;;;12.99;45.38
45441;BME280;31189;38.790;-77.084;2024-03-08T09:30:02;102055.49;;;13.23;44.99
45441;BME280;31189;38.790;-77.084;2024-03-08T09:32:28;102068.53;;;13.16;45.43
45441;BME280;31189;38.790;-77.084;2024-03-08T09:34:53;102075.02;;;13.25;45.05
45441;BME280;31189;38.790;-77.084;2024-03-08T09:37:19;102075.85;;;13.42;44.27
45441;BME280;31189;38.790;-77.084;2024-03-08T09:39:45;102076.47;;;13.54;44.27
45441;BME280;31189;38.790;-77.084;2024-03-08T09:42:10;102074.92;;;13.60;44.17
45441;BME280;31189;38.790;-77.084;2024-03-08T09:44:36;102073.10;;;13.79;44.01
45441;BME280;31189;38.790;-77.084;2024-03-08T09:47:02;102080.82;;;13.58;44.38
45441;BME280;31189;38.790;-77.084;2024-03-08T09:49:27;102086.64;;;12.80;45.06
45441;BME280;31189;38.790;-77.084;2024-03-08T09:51:53;102096.82;;;13.20;44.88
45441;BME280;31189;38.790;-77.084;2024-03-08T09:54:19;102099.12;;;13.46;44.07
45441;BME280;31189;38.790;-77.084;2024-03-08T09:56:45;102098.95;;;13.62;43.83
45441;BME280;31189;38.790;-77.084;2024-03-08T09:59:10;102100.64;;;13.39;43.97
45441;BME280;31189;38.790;-77.084;2024-03-08T10:01:35;102103.46;;;13.17;44.43
45441;BME280;31189;38.790;-77.084;2024-03-08T10:04:03;102112.98;;;12.62;45.39
45441;BME280;31189;38.790;-77.084;2024-03-08T10:06:27;102111.39;;;12.73;46.09
45441;BME280;31189;38.790;-77.084;2024-03-08T10:08:52;102111.06;;;12.62;45.34
45441;BME280;31189;38.790;-77.084;2024-03-08T10:11:18;102113.57;;;12.77;46.07
45441;BME280;31189;38.790;-77.084;2024-03-08T10:13:45;102114.90;;;12.16;46.99
45441;BME280;31189;38.790;-77.084;2024-03-08T10:16:09;102121.17;;;12.82;45.87
45441;BME280;31189;38.790;-77.084;2024-03-08T10:18:35;102129.78;;;12.19;47.67
45441;BME280;31189;38.790;-77.084;2024-03-08T10:21:05;102138.98;;;12.57;46.04
45441;BME280;31189;38.790;-77.084;2024-03-08T10:23:26;102143.51;;;12.96;45.04
45441;BME280;31189;38.790;-77.084;2024-03-08T10:25:52;102143.51;;;13.09;44.68
45441;BME280;31189;38.790;-77.084;2024-03-08T10:28:17;102141.81;;;12.89;44.95
45441;BME280;31189;38.790;-77.084;2024-03-08T10:30:47;102138.73;;;13.10;44.20
45441;BME280;31189;38.790;-77.084;2024-03-08T10:33:08;102147.84;;;12.10;46.01
45441;BME280;31189;38.790;-77.084;2024-03-08T10:35:34;102151.74;;;12.69;45.87
45441;BME280;31189;38.790;-77.084;2024-03-08T10:38:01;102150.84;;;12.83;45.49
45441;BME280;31189;38.790;-77.084;2024-03-08T10:40:26;102149.00;;;12.44;45.74
45441;BME280;31189;38.790;-77.084;2024-03-08T10:42:53;102153.55;;;11.94;47.09
45441;BME280;31189;38.790;-77.084;2024-03-08T10:45:26;102155.21;;;12.15;46.45
45441;BME280;31189;38.790;-77.084;2024-03-08T10:47:43;102153.78;;;12.14;46.76
45441;BME280;31189;38.790;-77.084;2024-03-08T10:50:11;102154.35;;;12.40;45.98
45441;BME280;31189;38.790;-77.084;2024-03-08T10:52:34;102156.03;;;12.35;46.29
45441;BME280;31189;38.790;-77.084;2024-03-08T10:54:59;102153.78;;;11.88;46.91
45441;BME280;31189;38.790;-77.084;2024-03-08T10:57:25;102158.98;;;12.71;46.11
45441;BME280;31189;38.790;-77.084;2024-03-08T10:59:51;102164.95;;;12.18;47.21
45441;BME280;31189;38.790;-77.084;2024-03-08T11:02:17;102166.55;;;12.46;46.69
45441;BME280;31189;38.790;-77.084;2024-03-08T11:04:46;102165.94;;;12.77;45.82
45441;BME280;31189;38.790;-77.084;2024-03-08T11:07:07;102169.94;;;12.30;46.69
45441;BME280;31189;38.790;-77.084;2024-03-08T11:09:36;102172.16;;;12.36;46.14
45441;BME280;31189;38.790;-77.084;2024-03-08T11:16:50;102169.84;;;12.66;46.58
45441;BME280;31189;38.790;-77.084;2024-03-08T11:19:26;102167.59;;;12.78;46.16
45441;BME280;31189;38.790;-77.084;2024-03-08T11:21:44;102169.08;;;12.04;46.31
45441;BME280;31189;38.790;-77.084;2024-03-08T11:24:08;102168.09;;;12.16;46.59
45441;BME280;31189;38.790;-77.084;2024-03-08T11:26:33;102164.51;;;12.05;46.57
45441;BME280;31189;38.790;-77.084;2024-03-08T11:31:25;102172.33;;;12.73;45.65
45441;BME280;31189;38.790;-77.084;2024-03-08T11:33:50;102177.03;;;12.54;45.62
45441;BME280;31189;38.790;-77.084;2024-03-08T11:36:20;102184.70;;;12.36;45.80
45441;BME280;31189;38.790;-77.084;2024-03-08T11:38:41;102194.70;;;12.56;45.48
45441;BME280;31189;38.790;-77.084;2024-03-08T11:41:06;102200.54;;;12.64;45.39
45441;BME280;31189;38.790;-77.084;2024-03-08T11:43:32;102203.16;;;12.37;45.31
45441;BME280;31189;38.790;-77.084;2024-03-08T11:48:23;102207.51;;;12.41;46.77
45441;BME280;31189;38.790;-77.084;2024-03-08T11:50:59;102205.53;;;12.23;45.71
45441;BME280;31189;38.790;-77.084;2024-03-08T11:53:15;102209.90;;;11.86;46.36
45441;BME280;31189;38.790;-77.084;2024-03-08T11:55:40;102211.74;;;11.71;47.00
45441;BME280;31189;38.790;-77.084;2024-03-08T11:58:06;102213.65;;;12.35;46.53
45441;BME280;31189;38.790;-77.084;2024-03-08T12:00:31;102216.18;;;12.25;46.44
45441;BME280;31189;38.790;-77.084;2024-03-08T12:03:03;102223.17;;;12.15;46.70
45441;BME280;31189;38.790;-77.084;2024-03-08T12:05:23;102227.83;;;11.78;47.24
45441;BME280;31189;38.790;-77.084;2024-03-08T12:07:56;102233.16;;;12.44;46.58
45441;BME280;31189;38.790;-77.084;2024-03-08T12:10:19;102236.86;;;11.97;46.75
45441;BME280;31189;38.790;-77.084;2024-03-08T12:12:40;102235.31;;;12.49;46.08
45441;BME280;31189;38.790;-77.084;2024-03-08T12:15:06;102239.02;;;12.44;46.11
45441;BME280;31189;38.790;-77.084;2024-03-08T12:17:31;102242.55;;;12.27;46.84
45441;BME280;31189;38.790;-77.084;2024-03-08T12:19:57;102244.20;;;12.36;46.49
45441;BME280;31189;38.790;-77.084;2024-03-08T12:22:25;102245.22;;;12.97;45.48
45441;BME280;31189;38.790;-77.084;2024-03-08T12:27:19;102246.93;;;12.07;46.92
45441;BME280;31189;38.790;-77.084;2024-03-08T12:29:39;102243.75;;;12.54;46.41
45441;BME280;31189;38.790;-77.084;2024-03-08T12:32:05;102246.44;;;13.03;45.84
45441;BME280;31189;38.790;-77.084;2024-03-08T12:34:30;102254.34;;;12.77;46.32